Time;durP1;ratioP1;P1;durP2;ratioP2;P2;SDS_P1;SDS_P2;PMS_P1;PMS_P2;Temp;Humidity;BMP_temperature;BMP_pressure;BME280_temperature;BME280_humidity;BME280_pressure;Samples;Min_cycle;Max_cycle;Signal;HPM_P1;HPM_P2
2022/03/28 00:01:15;;;;;;;18.02;7.60;;;10.80;99.90;;;;;;4993739;28;20353;-63
2022/03/28 00:03:41;;;;;;;12.88;7.18;;;10.70;99.90;;;;;;4995745;28;20037;-62
2022/03/28 00:06:07;;;;;;;13.88;6.13;;;10.50;99.90;;;;;;4995382;28;20030;-63
2022/03/28 00:08:34;;;;;;;18.92;5.88;;;10.40;99.90;;;;;;4996213;28;20507;-62
2022/03/28 00:11:00;;;;;;;16.85;5.53;;;11.10;99.90;;;;;;4996189;28;20105;-62
2022/03/28 00:13:26;;;;;;;16.88;5.25;;;11.30;99.90;;;;;;4994813;28;20152;-63
2022/03/28 00:15:52;;;;;;;13.27;5.47;;;11.60;99.90;;;;;;4994197;28;20513;-62
2022/03/28 00:18:17;;;;;;;16.85;5.47;;;11.70;99.90;;;;;;4996743;28;20117;-62
2022/03/28 00:20:46;;;;;;;17.67;6.18;;;11.80;99.90;;;;;;4995819;28;20019;-63
2022/03/28 00:23:15;;;;;;;14.35;5.07;;;11.90;99.90;;;;;;4995616;28;20030;-62
2022/03/28 00:25:44;;;;;;;15.40;5.45;;;11.90;99.90;;;;;;4993797;28;20032;-62
2022/03/28 00:28:10;;;;;;;18.92;5.40;;;11.90;99.90;;;;;;4992676;28;20034;-63
2022/03/28 00:30:36;;;;;;;18.10;5.65;;;12.00;99.90;;;;;;4996656;28;20033;-63
2022/03/28 00:33:01;;;;;;;15.02;4.95;;;12.10;99.90;;;;;;4996584;28;20472;-63
2022/03/28 00:35:27;;;;;;;16.58;5.93;;;12.10;99.90;;;;;;4995909;28;20018;-63
2022/03/28 00:37:54;;;;;;;16.00;5.95;;;12.10;99.90;;;;;;4994994;28;20058;-63
2022/03/28 00:40:20;;;;;;;14.18;5.22;;;12.10;99.90;;;;;;4993671;28;20483;-63
2022/03/28 00:42:49;;;;;;;16.55;5.50;;;12.20;99.90;;;;;;4994701;28;20058;-63
2022/03/28 00:45:15;;;;;;;15.32;5.60;;;12.10;99.90;;;;;;4995973;28;20084;-62
2022/03/28 00:47:42;;;;;;;14.70;5.60;;;12.10;99.90;;;;;;4995793;28;20026;-62
2022/03/28 00:50:11;;;;;;;17.05;5.57;;;12.10;99.90;;;;;;4995388;28;20038;-62
2022/03/28 00:52:38;;;;;;;19.27;5.32;;;12.10;99.90;;;;;;4996110;28;20025;-62
2022/03/28 00:55:06;;;;;;;14.68;5.60;;;12.00;99.90;;;;;;4974838;28;20066;-63
2022/03/28 00:57:32;;;;;;;12.55;5.18;;;12.00;99.90;;;;;;5004958;28;20050;-62
2022/03/28 01:00:04;;;;;;;18.48;6.13;;;11.90;99.90;;;;;;4995792;28;20065;-62
2022/03/28 01:02:30;;;;;;;17.25;5.35;;;11.80;99.90;;;;;;4995562;28;20087;-62
2022/03/28 01:04:57;;;;;;;16.95;5.93;;;11.40;99.90;;;;;;4993929;28;20033;-62
2022/03/28 01:07:24;;;;;;;16.92;5.82;;;10.90;99.90;;;;;;4993911;28;20065;-62
2022/03/28 01:09:50;;;;;;;15.35;5.75;;;10.70;99.90;;;;;;4992735;28;20388;-62
2022/03/28 01:12:17;;;;;;;14.68;5.70;;;10.40;99.90;;;;;;4997402;28;20030;-62
2022/03/28 01:14:44;;;;;;;12.57;5.55;;;10.20;99.90;;;;;;4995198;28;20038;-62
2022/03/28 01:19:59;;;;;;;15.82;6.30;;;9.70;99.90;;;;;;4973500;28;20042;-62
2022/03/28 01:22:24;;;;;;;12.35;6.13;;;9.60;99.90;;;;;;4970340;28;20042;-63
2022/03/28 01:24:50;;;;;;;16.60;6.57;;;9.40;99.90;;;;;;4971497;28;20081;-62
2022/03/28 01:27:19;;;;;;;16.08;6.43;;;9.30;99.90;;;;;;4973743;28;20598;-62
2022/03/28 01:29:45;;;;;;;14.05;6.70;;;9.20;99.90;;;;;;4972363;28;20054;-62
2022/03/28 01:32:11;;;;;;;17.08;6.70;;;9.00;99.90;;;;;;4971952;28;20069;-62
2022/03/28 01:34:37;;;;;;;18.83;7.57;;;8.90;99.90;;;;;;4971567;28;20126;-62
2022/03/28 01:37:04;;;;;;;16.20;6.95;;;8.80;99.90;;;;;;4952564;28;20157;-62
2022/03/28 01:39:31;;;;;;;16.08;6.95;;;8.70;99.90;;;;;;4975668;28;20118;-62
2022/03/28 01:41:58;;;;;;;17.00;6.60;;;8.70;99.90;;;;;;4971673;28;20043;-62
2022/03/28 01:44:25;;;;;;;16.00;6.32;;;8.70;99.90;;;;;;4971687;28;20043;-62
2022/03/28 01:46:50;;;;;;;14.20;6.07;;;8.80;99.90;;;;;;4971819;28;20034;-62
2022/03/28 01:49:19;;;;;;;12.90;6.53;;;8.60;99.90;;;;;;4968475;28;20086;-62
2022/03/28 01:51:47;;;;;;;13.68;6.97;;;8.50;99.90;;;;;;4971627;28;20058;-62
2022/03/28 01:54:14;;;;;;;24.63;7.97;;;8.60;99.90;;;;;;4972838;28;20034;-62
2022/03/28 01:56:41;;;;;;;14.30;7.50;;;8.80;99.90;;;;;;4972310;28;20046;-62
2022/03/28 01:59:08;;;;;;;17.30;8.90;;;8.80;99.90;;;;;;4986552;28;20072;-62
2022/03/28 02:01:34;;;;;;;19.45;8.70;;;8.60;99.90;;;;;;4992791;28;20455;-62
2022/03/28 02:04:00;;;;;;;15.40;8.38;;;8.50;99.90;;;;;;4990285;28;20064;-62
2022/03/28 02:06:27;;;;;;;18.15;8.85;;;8.50;99.90;;;;;;4996879;28;20113;-62
2022/03/28 02:08:53;;;;;;;17.85;7.72;;;8.40;99.90;;;;;;4994581;28;20029;-62
2022/03/28 02:11:19;;;;;;;13.48;7.22;;;8.40;99.90;;;;;;4994439;28;20034;-63
2022/03/28 02:13:45;;;;;;;14.73;6.30;;;8.50;99.90;;;;;;4993473;28;20091;-63
2022/03/28 02:16:11;;;;;;;14.70;6.72;;;8.50;99.90;;;;;;4991194;28;20030;-62
2022/03/28 02:18:38;;;;;;;12.95;6.72;;;8.30;99.90;;;;;;4994860;28;20026;-62
2022/03/28 02:21:05;;;;;;;16.55;6.15;;;8.00;99.90;;;;;;4993647;28;20522;-63
2022/03/28 02:23:30;;;;;;;13.68;6.10;;;7.90;99.90;;;;;;4992955;28;20396;-62
2022/03/28 02:25:57;;;;;;;14.32;6.45;;;7.80;99.90;;;;;;4994822;28;20037;-62
2022/03/28 02:28:23;;;;;;;17.30;6.65;;;7.80;99.90;;;;;;4992410;28;20035;-62
2022/03/28 02:30:49;;;;;;;20.45;7.45;;;7.70;99.90;;;;;;4992316;28;20022;-62
2022/03/28 02:33:15;;;;;;;11.43;6.05;;;7.60;99.90;;;;;;4995968;28;20048;-62
2022/03/28 02:35:41;;;;;;;15.10;6.03;;;7.60;99.90;;;;;;4994643;28;20027;-62
2022/03/28 02:38:08;;;;;;;15.60;6.68;;;7.50;99.90;;;;;;4994273;28;20042;-62
2022/03/28 02:40:35;;;;;;;12.75;6.68;;;7.30;99.90;;;;;;4992522;28;20045;-62
2022/03/28 02:43:02;;;;;;;16.63;6.95;;;7.30;99.90;;;;;;4990191;28;20049;-62
2022/03/28 02:45:31;;;;;;;17.67;6.22;;;7.40;99.90;;;;;;4996405;28;20031;-62
2022/03/28 02:47:59;;;;;;;13.55;6.60;;;7.50;99.90;;;;;;4993785;28;20042;-62
2022/03/28 02:50:25;;;;;;;15.55;7.20;;;7.60;99.90;;;;;;4994411;28;20050;-62
2022/03/28 02:52:51;;;;;;;13.02;6.57;;;7.60;99.90;;;;;;4992766;28;20034;-62
2022/03/28 02:55:17;;;;;;;14.75;6.25;;;7.60;99.90;;;;;;4991398;28;20026;-62
2022/03/28 02:57:43;;;;;;;15.40;6.75;;;7.50;99.90;;;;;;4994041;28;20022;-63
2022/03/28 03:00:10;;;;;;;19.17;6.82;;;7.20;99.90;;;;;;4995093;28;20050;-62
2022/03/28 03:02:36;;;;;;;15.30;6.70;;;7.10;99.90;;;;;;4995078;28;20018;-62
2022/03/28 03:05:03;;;;;;;14.10;6.75;;;7.00;99.90;;;;;;4998007;28;20022;-62
2022/03/28 03:07:29;;;;;;;15.20;6.28;;;7.10;99.90;;;;;;4996645;28;20022;-62
2022/03/28 03:09:55;;;;;;;17.58;6.70;;;7.10;99.90;;;;;;4994472;28;20038;-62
2022/03/28 03:12:21;;;;;;;12.20;6.18;;;7.10;99.90;;;;;;4998425;28;20085;-62
2022/03/28 03:14:46;;;;;;;16.63;6.60;;;7.10;99.90;;;;;;4997444;28;20039;-63
2022/03/28 03:17:12;;;;;;;10.98;6.47;;;7.00;99.90;;;;;;4996936;28;20391;-62
2022/03/28 03:19:40;;;;;;;12.85;6.90;;;6.90;99.90;;;;;;4996237;28;20429;-62
2022/03/28 03:22:07;;;;;;;15.55;6.28;;;6.90;99.90;;;;;;4978079;28;20658;-63
2022/03/28 03:24:34;;;;;;;13.68;7.00;;;6.80;99.90;;;;;;5006521;28;20128;-62
2022/03/28 03:27:00;;;;;;;11.45;7.53;;;6.80;99.90;;;;;;4997583;28;20041;-62
2022/03/28 03:32:26;;;;;;;15.50;7.50;;;6.70;99.90;;;;;;5857316;23;20203;-64
2022/03/28 03:34:51;;;;;;;19.30;9.25;;;6.60;99.90;;;;;;5025441;23;20075;-64
2022/03/28 03:37:17;;;;;;;15.68;10.00;;;6.70;99.90;;;;;;4974759;28;20553;-64
2022/03/28 03:39:43;;;;;;;18.15;10.77;;;6.70;99.90;;;;;;4975247;28;20031;-64
2022/03/28 03:42:11;;;;;;;18.27;8.85;;;6.90;99.90;;;;;;4975013;28;20109;-64
2022/03/28 03:44:36;;;;;;;19.33;9.10;;;7.10;99.90;;;;;;4974742;28;20027;-64
2022/03/28 03:47:02;;;;;;;17.55;8.38;;;7.20;99.90;;;;;;4974702;28;20039;-64
2022/03/28 03:49:28;;;;;;;17.38;7.97;;;7.30;99.90;;;;;;4974805;28;20414;-64
2022/03/28 03:51:54;;;;;;;20.38;8.93;;;7.50;99.90;;;;;;4974919;28;20035;-64
2022/03/28 03:54:19;;;;;;;16.77;8.40;;;7.70;99.90;;;;;;4974713;28;20450;-64
2022/03/28 03:56:46;;;;;;;14.73;7.75;;;7.80;99.90;;;;;;4974768;28;20023;-64
2022/03/28 03:59:12;;;;;;;21.75;8.05;;;7.80;99.90;;;;;;4974466;28;20043;-62
2022/03/28 04:01:38;;;;;;;19.80;6.78;;;8.00;99.90;;;;;;4974471;28;20022;-61
2022/03/28 04:04:03;;;;;;;15.43;6.53;;;8.30;99.90;;;;;;4974059;28;20030;-61
2022/03/28 04:06:29;;;;;;;18.77;6.82;;;8.70;99.90;;;;;;4974907;28;20031;-61
2022/03/28 04:08:55;;;;;;;12.63;6.03;;;8.80;99.90;;;;;;4974359;28;20483;-62
2022/03/28 04:11:20;;;;;;;13.73;6.20;;;8.60;99.90;;;;;;4974090;28;20038;-62
2022/03/28 04:13:46;;;;;;;16.13;7.22;;;8.40;99.90;;;;;;4973623;28;20931;-62
2022/03/28 04:16:12;;;;;;;18.98;6.80;;;8.40;99.90;;;;;;4974129;28;20019;-61
2022/03/28 04:18:38;;;;;;;16.05;6.28;;;8.10;99.90;;;;;;4974844;28;20479;-61
2022/03/28 04:21:03;;;;;;;13.93;6.50;;;8.30;99.90;;;;;;4974005;28;20031;-62
2022/03/28 04:23:29;;;;;;;18.58;6.38;;;8.20;99.90;;;;;;4973972;28;20034;-61
2022/03/28 04:25:55;;;;;;;14.90;6.47;;;8.00;99.90;;;;;;4974411;28;20423;-61
2022/03/28 04:28:21;;;;;;;18.52;7.88;;;8.00;99.90;;;;;;4973977;28;20039;-63
2022/03/28 04:30:47;;;;;;;27.00;7.88;;;7.70;99.90;;;;;;4974428;28;20054;-61
2022/03/28 04:33:12;;;;;;;23.40;7.10;;;7.40;99.90;;;;;;4973154;28;20039;-61
2022/03/28 04:35:39;;;;;;;17.63;6.70;;;7.50;99.90;;;;;;4973812;28;20541;-61
2022/03/28 04:38:06;;;;;;;12.40;6.78;;;7.70;99.90;;;;;;4974097;28;20061;-61
2022/03/28 04:40:33;;;;;;;17.88;6.80;;;7.80;99.90;;;;;;4973776;28;20030;-61
2022/03/28 04:43:00;;;;;;;20.58;7.25;;;7.80;99.90;;;;;;4974013;28;20368;-62
2022/03/28 04:45:27;;;;;;;19.20;7.07;;;7.80;99.90;;;;;;4973391;28;20030;-61
2022/03/28 04:47:53;;;;;;;14.48;6.57;;;7.90;99.90;;;;;;4973216;28;20121;-61
2022/03/28 04:50:18;;;;;;;18.50;6.60;;;7.90;99.90;;;;;;4973664;28;20034;-61
2022/03/28 04:52:44;;;;;;;13.90;6.78;;;8.00;99.90;;;;;;4973809;28;20118;-61
2022/03/28 04:55:10;;;;;;;19.08;6.68;;;8.00;99.90;;;;;;4973565;28;20091;-61
2022/03/28 04:57:36;;;;;;;16.98;6.28;;;8.00;99.90;;;;;;4974073;28;20022;-61
2022/03/28 05:00:06;;;;;;;15.63;6.68;;;8.10;99.90;;;;;;4973167;28;20482;-61
2022/03/28 05:02:32;;;;;;;18.15;7.05;;;8.10;99.90;;;;;;4972928;28;20027;-61
2022/03/28 05:04:58;;;;;;;16.10;6.70;;;8.10;99.90;;;;;;4973188;28;20038;-61
2022/03/28 05:07:28;;;;;;;18.10;7.05;;;8.20;99.90;;;;;;4973464;28;20035;-61
2022/03/28 05:09:54;;;;;;;17.33;7.07;;;8.20;99.90;;;;;;4970009;28;20499;-61
2022/03/28 05:12:24;;;;;;;15.95;6.93;;;7.90;99.90;;;;;;4973352;28;20023;-61
2022/03/28 05:14:50;;;;;;;14.80;6.70;;;8.00;99.90;;;;;;4973337;28;20435;-61
2022/03/28 05:17:24;;;;;;;18.63;7.22;;;8.10;99.90;;;;;;4972724;28;20023;-64
2022/03/28 05:19:50;;;;;;;29.30;8.73;;;8.00;99.90;;;;;;4973332;28;20037;-64
2022/03/28 05:22:16;;;;;;;21.10;8.02;;;7.80;99.90;;;;;;4972430;28;20452;-63
2022/03/28 05:24:42;;;;;;;18.52;7.47;;;7.60;99.90;;;;;;4973759;28;20027;-63
2022/03/28 05:27:08;;;;;;;16.20;7.32;;;7.50;99.90;;;;;;4973167;28;20434;-63
2022/03/28 05:29:34;;;;;;;16.25;6.68;;;7.30;99.90;;;;;;4972793;28;20031;-64
2022/03/28 05:32:01;;;;;;;20.70;7.55;;;7.50;99.90;;;;;;4973139;28;20019;-63
2022/03/28 05:34:30;;;;;;;13.02;7.35;;;7.40;99.90;;;;;;4972736;28;20047;-63
2022/03/28 05:37:00;;;;;;;17.38;7.22;;;7.30;99.90;;;;;;4973527;28;20423;-63
2022/03/28 05:39:27;;;;;;;16.85;7.05;;;7.50;99.90;;;;;;4972800;28;20487;-64
2022/03/28 05:41:53;;;;;;;17.88;6.53;;;7.70;99.90;;;;;;4972861;28;20503;-63
2022/03/28 05:44:19;;;;;;;19.70;7.32;;;8.00;99.90;;;;;;4972748;28;20513;-63
2022/03/28 05:46:46;;;;;;;14.55;6.30;;;8.10;99.90;;;;;;4972460;28;20035;-63
2022/03/28 05:49:12;;;;;;;19.30;7.03;;;8.10;99.90;;;;;;4973128;28;20031;-63
2022/03/28 05:51:38;;;;;;;14.77;6.47;;;8.20;99.90;;;;;;4973356;28;20038;-63
2022/03/28 05:54:03;;;;;;;21.70;7.85;;;8.10;99.90;;;;;;4972559;28;20137;-63
2022/03/28 05:56:29;;;;;;;23.40;7.10;;;8.00;99.90;;;;;;4972845;28;20070;-63
2022/03/28 05:58:55;;;;;;;14.00;6.90;;;8.00;99.90;;;;;;4972607;28;20035;-63
2022/03/28 06:01:21;;;;;;;15.20;6.97;;;8.00;99.90;;;;;;4972273;28;20035;-63
2022/03/28 06:03:46;;;;;;;15.55;6.53;;;8.00;99.90;;;;;;4973179;28;20027;-63
2022/03/28 06:06:13;;;;;;;14.93;6.50;;;8.10;99.90;;;;;;4971967;28;20031;-61
2022/03/28 06:08:38;;;;;;;14.43;7.57;;;8.10;99.90;;;;;;4972943;28;20074;-63
2022/03/28 06:11:05;;;;;;;16.10;7.38;;;8.00;99.90;;;;;;4972427;28;20031;-62
2022/03/28 06:13:31;;;;;;;18.23;7.57;;;7.90;99.90;;;;;;4972372;28;20030;-63
2022/03/28 06:15:58;;;;;;;20.10;8.52;;;7.80;99.90;;;;;;4971703;28;20053;-63
2022/03/28 06:18:24;;;;;;;19.45;7.40;;;7.80;99.90;;;;;;4972614;28;20033;-63
2022/03/28 06:20:50;;;;;;;21.63;7.72;;;8.00;99.90;;;;;;4972266;28;20034;-63
2022/03/28 06:23:16;;;;;;;12.60;6.97;;;8.40;99.90;;;;;;4971856;28;20045;-63
2022/03/28 06:25:42;;;;;;;14.35;6.88;;;8.70;99.90;;;;;;4972077;28;20102;-63
2022/03/28 06:28:08;;;;;;;13.50;7.03;;;9.10;99.90;;;;;;4972140;28;20043;-62
2022/03/28 06:30:34;;;;;;;19.05;7.15;;;9.60;99.90;;;;;;4970192;28;20021;-63
2022/03/28 06:33:00;;;;;;;17.08;6.82;;;9.90;99.90;;;;;;4971893;28;20146;-63
2022/03/28 06:35:25;;;;;;;13.73;6.63;;;10.40;99.90;;;;;;4972095;28;20057;-62
2022/03/28 06:37:52;;;;;;;12.02;6.20;;;11.00;99.90;;;;;;4975878;28;20042;-62
2022/03/28 06:40:19;;;;;;;13.32;6.35;;;11.50;99.90;;;;;;4976359;28;20019;-62
2022/03/28 06:42:44;;;;;;;17.20;7.18;;;11.50;99.90;;;;;;4976299;28;20050;-63
2022/03/28 06:45:11;;;;;;;18.02;6.65;;;11.70;99.90;;;;;;4975716;28;20648;-63
2022/03/28 06:47:40;;;;;;;18.30;6.88;;;11.80;99.90;;;;;;4975678;28;20501;-63
2022/03/28 06:50:07;;;;;;;22.38;7.05;;;12.50;99.90;;;;;;4975766;28;20054;-62
2022/03/28 06:52:34;;;;;;;20.00;6.85;;;12.90;99.90;;;;;;4975615;28;20031;-60
2022/03/28 06:55:00;;;;;;;15.32;6.68;;;12.90;99.60;;;;;;4975924;28;20031;-63
2022/03/28 06:57:26;;;;;;;14.73;6.45;;;13.50;99.10;;;;;;4974960;28;20077;-62
2022/03/28 06:59:53;;;;;;;15.35;8.07;;;13.80;98.30;;;;;;4975024;28;20423;-63
2022/03/28 07:02:19;;;;;;;18.45;7.25;;;13.50;98.90;;;;;;4974343;28;20118;-63
2022/03/28 07:04:45;;;;;;;13.52;7.18;;;14.10;97.50;;;;;;4975264;28;20082;-62
2022/03/28 07:07:11;;;;;;;13.77;6.50;;;14.40;97.30;;;;;;4975161;28;20035;-62
2022/03/28 07:09:37;;;;;;;15.63;7.22;;;14.80;95.80;;;;;;4975986;28;20529;-62
2022/03/28 07:12:05;;;;;;;16.00;7.90;;;14.80;95.70;;;;;;4974976;28;20388;-62
2022/03/28 07:14:32;;;;;;;14.13;6.78;;;15.60;95.00;;;;;;4974661;28;20066;-63
2022/03/28 07:16:58;;;;;;;14.48;6.65;;;15.60;94.90;;;;;;4975343;28;20089;-64
2022/03/28 07:19:24;;;;;;;17.42;6.32;;;16.30;93.70;;;;;;4975177;28;20491;-63
2022/03/28 07:21:50;;;;;;;15.32;6.30;;;17.00;92.50;;;;;;4975173;28;20031;-60
2022/03/28 07:24:17;;;;;;;15.48;6.35;;;17.80;90.90;;;;;;4974942;28;20027;-61
2022/03/28 07:26:45;;;;;;;17.73;6.53;;;17.00;91.50;;;;;;4974531;28;20039;-61
2022/03/28 07:29:11;;;;;;;13.68;6.40;;;17.50;91.20;;;;;;4974441;28;20555;-61
2022/03/28 07:31:39;;;;;;;11.48;6.47;;;17.50;90.00;;;;;;4975116;28;20023;-64
2022/03/28 07:36:51;;;;;;;12.73;6.25;;;18.10;89.60;;;;;;4975373;28;20548;-62
2022/03/28 07:39:21;;;;;;;11.25;5.43;;;18.00;90.00;;;;;;4974127;28;20034;-63
2022/03/28 07:41:48;;;;;;;12.18;5.75;;;17.60;89.70;;;;;;4974241;28;20455;-63
2022/03/28 07:44:14;;;;;;;11.55;5.47;;;17.50;90.00;;;;;;4974908;28;20033;-61
2022/03/28 07:46:41;;;;;;;13.45;6.57;;;19.00;87.40;;;;;;4974988;28;20030;-61
2022/03/28 07:49:10;;;;;;;13.25;6.35;;;18.60;87.00;;;;;;4973788;28;20396;-61
2022/03/28 07:51:36;;;;;;;15.07;6.13;;;18.50;87.20;;;;;;4973164;28;20463;-61
2022/03/28 07:54:02;;;;;;;14.88;5.60;;;17.50;89.70;;;;;;4974296;28;20042;-61
2022/03/28 07:56:27;;;;;;;14.93;5.88;;;19.30;87.00;;;;;;4974247;28;20081;-61
2022/03/28 07:58:53;;;;;;;14.50;6.00;;;20.10;83.80;;;;;;4974728;28;20038;-61
2022/03/28 08:01:19;;;;;;;11.00;5.40;;;19.40;86.40;;;;;;4974659;28;20483;-61
2022/03/28 08:03:44;;;;;;;14.05;6.00;;;19.80;84.10;;;;;;4974655;28;20034;-61
2022/03/28 08:06:10;;;;;;;14.30;5.88;;;19.60;84.40;;;;;;4974774;28;20452;-63
2022/03/28 08:08:37;;;;;;;14.45;5.85;;;19.30;84.70;;;;;;4974139;28;20034;-63
2022/03/28 08:11:05;;;;;;;13.80;5.72;;;19.80;84.70;;;;;;4974135;28;20047;-61
2022/03/28 08:13:31;;;;;;;33.50;7.72;;;19.80;83.40;;;;;;4974361;28;20039;-61
2022/03/28 08:15:57;;;;;;;15.02;6.85;;;20.20;83.40;;;;;;4974397;28;20422;-61
2022/03/28 08:18:24;;;;;;;12.40;6.50;;;20.40;81.80;;;;;;4974444;28;20046;-61
2022/03/28 08:20:49;;;;;;;15.52;6.22;;;20.60;81.10;;;;;;4974504;28;20472;-61
2022/03/28 08:23:16;;;;;;;14.68;6.93;;;20.70;81.10;;;;;;4973793;28;20042;-61
2022/03/28 08:25:42;;;;;;;15.70;6.75;;;21.60;79.50;;;;;;4973775;28;20083;-62
2022/03/28 08:28:08;;;;;;;14.82;6.28;;;22.30;77.70;;;;;;4974121;28;20379;-61
2022/03/28 08:30:35;;;;;;;16.33;7.22;;;22.00;78.80;;;;;;4974223;28;20041;-61
2022/03/28 08:33:01;;;;;;;16.58;6.05;;;23.60;75.40;;;;;;4973483;28;20027;-61
2022/03/28 08:35:27;;;;;;;17.10;6.70;;;21.70;79.00;;;;;;4973788;28;20129;-61
2022/03/28 08:37:53;;;;;;;13.63;5.70;;;21.40;79.30;;;;;;4973940;28;20031;-62
2022/03/28 08:40:19;;;;;;;11.40;6.28;;;21.60;80.30;;;;;;4973849;28;20054;-61
2022/03/28 08:42:47;;;;;;;11.63;6.20;;;20.50;81.40;;;;;;4974206;28;20526;-62
2022/03/28 08:45:14;;;;;;;13.88;6.45;;;20.00;83.60;;;;;;4973603;28;20105;-61
2022/03/28 08:47:48;;;;;;;13.57;6.35;;;20.70;83.20;;;;;;4973927;28;20058;-61
2022/03/28 08:50:14;;;;;;;;;;;20.90;81.40;;;;;;4974230;28;20113;-62
2022/03/28 08:52:41;;;;;;;16.60;6.78;;;21.40;81.00;;;;;;4973068;28;20001;-61
2022/03/28 08:55:08;;;;;;;13.63;6.85;;;21.70;80.30;;;;;;4972514;28;20027;-62
2022/03/28 08:57:34;;;;;;;16.08;6.55;;;21.40;81.20;;;;;;4973968;28;20031;-62
2022/03/28 09:00:00;;;;;;;14.85;6.55;;;22.00;80.70;;;;;;4973348;28;20503;-62
2022/03/28 09:02:46;;;;;;;17.73;6.88;;;21.70;80.60;;;;;;4973348;28;20404;-62
2022/03/28 09:05:16;;;;;;;14.38;7.10;;;21.00;81.90;;;;;;4973235;28;20042;-62
2022/03/28 09:07:43;;;;;;;19.83;7.07;;;21.00;82.40;;;;;;4973219;28;20041;-62
2022/03/28 09:10:18;;;;;;;18.95;6.57;;;20.50;83.70;;;;;;4973029;28;20042;-62
2022/03/28 09:13:05;;;;;;;17.52;7.03;;;20.60;81.90;;;;;;4972851;28;20034;-62
2022/03/28 09:15:51;;;;;;;15.68;7.40;;;20.20;84.90;;;;;;4973135;28;20062;-62
2022/03/28 09:18:26;;;;;;;15.48;7.53;;;20.00;84.90;;;;;;4973001;28;20593;-62
2022/03/28 09:20:57;;;;;;;16.33;7.30;;;20.20;83.60;;;;;;4972884;28;20047;-62
2022/03/28 09:23:42;;;;;;;17.48;6.28;;;20.70;83.90;;;;;;4972489;28;20081;-62
2022/03/28 09:26:21;;;;;;;19.17;7.03;;;20.60;83.10;;;;;;4973351;28;20039;-62
2022/03/28 09:29:05;;;;;;;20.02;7.00;;;21.00;84.80;;;;;;4973288;28;20033;-62
2022/03/28 09:31:34;;;;;;;15.65;6.50;;;21.00;83.90;;;;;;4958503;28;20558;-62
2022/03/28 09:34:06;;;;;;;12.50;6.35;;;21.10;82.90;;;;;;4972830;28;20499;-62
2022/03/28 09:36:50;;;;;;;16.17;5.88;;;20.30;85.30;;;;;;4972839;28;20158;-62
2022/03/28 09:39:19;;;;;;;17.45;5.55;;;20.70;84.20;;;;;;4972634;28;20031;-63
2022/03/28 09:42:08;;;;;;;14.20;6.20;;;20.60;85.10;;;;;;4972788;28;20026;-62
2022/03/28 09:44:46;;;;;;;19.58;6.00;;;21.80;82.60;;;;;;4972409;28;20038;-61
2022/03/28 09:47:21;;;;;;;13.30;5.63;;;23.20;81.50;;;;;;4972544;28;20027;-62
2022/03/28 09:49:49;;;;;;;13.13;5.82;;;22.70;80.30;;;;;;4972591;28;20159;-62
2022/03/28 09:52:25;;;;;;;15.77;5.70;;;21.70;83.60;;;;;;4972583;28;20086;-61
2022/03/28 09:54:57;;;;;;;15.10;6.13;;;22.30;81.80;;;;;;4969021;28;20050;-61
2022/03/28 09:57:25;;;;;;;11.82;5.50;;;22.20;80.90;;;;;;4971927;28;20041;-62
2022/03/28 09:59:52;;;;;;;15.82;5.28;;;22.50;81.80;;;;;;4972379;28;20027;-61
2022/03/28 10:02:22;;;;;;;11.77;5.50;;;22.90;81.20;;;;;;4972367;28;20030;-62
2022/03/28 10:04:53;;;;;;;12.93;5.35;;;23.60;79.70;;;;;;4972397;28;20019;-62
2022/03/28 10:07:21;;;;;;;13.05;5.47;;;24.10;77.20;;;;;;4972478;28;20027;-62
2022/03/28 10:09:48;;;;;;;14.93;5.57;;;24.80;76.20;;;;;;4972945;28;20081;-61
2022/03/28 10:12:14;;;;;;;14.43;5.72;;;24.60;76.20;;;;;;4971742;28;20070;-62
2022/03/28 10:14:40;;;;;;;16.17;5.88;;;25.40;75.20;;;;;;4972575;28;20423;-62
2022/03/28 10:17:07;;;;;;;18.05;5.68;;;25.30;76.40;;;;;;4972299;28;20031;-61
2022/03/28 10:19:39;;;;;;;15.05;5.95;;;25.30;76.50;;;;;;4972245;28;20048;-61
2022/03/28 10:22:15;;;;;;;13.40;6.03;;;25.30;73.80;;;;;;4972445;28;20035;-62
2022/03/28 10:24:43;;;;;;;14.25;5.97;;;26.00;72.00;;;;;;4971996;28;20039;-62
2022/03/28 10:27:10;;;;;;;11.27;5.57;;;25.20;72.20;;;;;;4972312;28;20502;-62
2022/03/28 10:29:41;;;;;;;14.38;5.95;;;;;;;;;;4972156;28;20085;-62
2022/03/28 10:32:13;;;;;;;12.80;5.63;;;26.10;71.00;;;;;;4972496;28;20035;-62
2022/03/28 10:34:45;;;;;;;23.08;5.88;;;26.80;71.40;;;;;;4971986;28;20051;-61
2022/03/28 10:37:35;;;;;;;20.00;5.82;;;26.20;72.30;;;;;;4971840;28;20034;-62
2022/03/28 10:40:13;;;;;;;15.20;5.80;;;26.20;71.10;;;;;;4969419;28;20034;-62
2022/03/28 10:42:45;;;;;;;15.38;5.55;;;25.30;72.30;;;;;;4972486;28;20023;-62
2022/03/28 10:45:12;;;;;;;13.45;5.45;;;26.10;71.00;;;;;;4972065;28;20030;-62
2022/03/28 10:47:50;;;;;;;14.45;5.10;;;25.90;70.60;;;;;;4971845;28;20029;-62
2022/03/28 10:50:27;;;;;;;18.45;5.72;;;26.60;70.90;;;;;;4971900;28;20035;-62
2022/03/28 10:53:19;;;;;;;14.38;5.45;;;26.80;70.00;;;;;;4972011;28;20026;-61
2022/03/28 10:55:50;;;;;;;16.23;5.75;;;26.20;70.80;;;;;;4959458;28;20034;-62
2022/03/28 10:58:18;;;;;;;18.58;5.40;;;26.40;68.80;;;;;;4971193;28;20035;-61
2022/03/28 11:01:23;;;;;;;19.33;5.88;;;26.50;67.80;;;;;;4971877;28;20031;-62
2022/03/28 11:03:51;;;;;;;14.48;5.10;;;26.70;67.10;;;;;;4973667;28;20436;-62
2022/03/28 11:06:19;;;;;;;11.60;4.75;;;26.60;67.30;;;;;;4971299;28;20042;-64
2022/03/28 11:08:58;;;;;;;17.65;5.25;;;27.10;67.10;;;;;;4971486;28;20027;-62
2022/03/28 11:11:32;;;;;;;19.85;5.25;;;27.00;67.70;;;;;;4971668;28;20054;-63
2022/03/28 11:14:12;;;;;;;17.15;5.15;;;27.40;68.00;;;;;;4971845;28;20126;-63
2022/03/28 11:16:50;;;;;;;12.93;4.95;;;27.70;69.20;;;;;;4971368;28;20023;-61
2022/03/28 11:19:32;;;;;;;15.45;5.40;;;27.50;66.80;;;;;;4971368;28;20567;-62
2022/03/28 11:22:04;;;;;;;13.60;4.80;;;26.80;65.60;;;;;;4969600;28;20483;-63
2022/03/28 11:24:56;;;;;;;15.63;5.18;;;26.30;67.70;;;;;;4974942;28;20115;-62
2022/03/28 11:27:24;;;;;;;15.00;5.10;;;25.60;67.00;;;;;;4975062;28;20061;-62
2022/03/28 11:29:59;;;;;;;15.93;5.22;;;25.10;67.30;;;;;;4974829;28;20192;-63
2022/03/28 11:32:31;;;;;;;13.90;4.80;;;24.90;68.60;;;;;;4975150;28;20026;-62
2022/03/28 11:34:57;;;;;;;20.00;5.93;;;24.80;68.90;;;;;;4974520;28;20058;-63
2022/03/28 11:37:26;;;;;;;19.33;5.20;;;24.80;69.20;;;;;;4974963;28;20026;-63
2022/03/28 11:40:03;;;;;;;13.82;5.03;;;24.90;68.10;;;;;;4971401;28;20054;-63
2022/03/28 11:42:33;;;;;;;14.50;4.80;;;24.60;68.00;;;;;;4974809;28;20043;-63
2022/03/28 11:45:10;;;;;;;14.07;4.97;;;25.20;67.90;;;;;;4974756;28;20042;-61
2022/03/28 11:47:38;;;;;;;17.98;5.32;;;25.40;69.00;;;;;;4973263;28;20499;-62
2022/03/28 11:50:08;;;;;;;14.30;5.63;;;25.80;67.10;;;;;;4974369;28;20034;-61
2022/03/28 11:52:34;;;;;;;15.85;5.30;;;25.60;68.20;;;;;;4974728;28;20548;-62
2022/03/28 11:55:00;;;;;;;17.65;4.72;;;25.40;67.20;;;;;;4975124;28;20030;-62
2022/03/28 12:00:21;;;;;;;14.52;5.38;;;25.50;67.10;;;;;;4974814;28;20105;-63
2022/03/28 12:02:57;;;;;;;14.40;5.10;;;24.40;67.50;;;;;;4974092;28;20026;-62
2022/03/28 12:05:48;;;;;;;13.15;4.50;;;25.30;69.50;;;;;;4974618;28;20454;-62
2022/03/28 12:08:17;;;;;;;16.45;5.30;;;26.30;65.50;;;;;;4974546;28;20108;-63
2022/03/28 12:10:51;;;;;;;18.65;5.03;;;25.80;64.50;;;;;;4974558;28;20033;-62
2022/03/28 12:13:18;;;;;;;15.45;4.63;;;26.10;65.10;;;;;;4974413;28;20443;-63
2022/03/28 12:15:47;;;;;;;21.15;5.10;;;26.00;63.50;;;;;;4974779;28;20090;-63
2022/03/28 12:18:15;;;;;;;13.32;4.75;;;26.30;65.70;;;;;;4974028;28;20035;-62
2022/03/28 12:20:43;;;;;;;19.70;5.35;;;26.20;65.30;;;;;;4974096;28;20121;-62
2022/03/28 12:23:12;;;;;;;13.13;4.88;;;25.70;64.40;;;;;;4974089;28;20027;-61
2022/03/28 12:25:39;;;;;;;15.65;4.65;;;25.00;65.10;;;;;;4969223;28;20117;-62
2022/03/28 12:28:08;;;;;;;21.77;5.47;;;24.40;65.20;;;;;;4973181;28;20033;-60
2022/03/28 12:30:57;;;;;;;15.15;4.68;;;24.50;64.90;;;;;;4972507;28;20054;-61
2022/03/28 12:33:27;;;;;;;14.23;5.15;;;25.50;65.80;;;;;;4972682;28;20464;-62
2022/03/28 12:36:06;;;;;;;13.27;4.72;;;26.50;66.00;;;;;;4973511;28;20054;-61
2022/03/28 12:38:33;;;;;;;19.80;4.93;;;26.60;64.10;;;;;;4973682;28;20030;-62
2022/03/28 12:41:05;;;;;;;18.83;5.35;;;26.30;64.00;;;;;;4972116;28;20042;-62
2022/03/28 12:43:33;;;;;;;15.98;4.95;;;25.40;64.80;;;;;;4973778;28;20040;-63
2022/03/28 12:46:02;;;;;;;16.75;5.68;;;23.80;67.90;;;;;;4973754;28;20500;-63
2022/03/28 12:48:49;;;;;;;19.10;5.78;;;24.90;69.30;;;;;;4972541;28;20025;-61
2022/03/28 12:51:27;;;;;;;14.15;4.97;;;24.60;66.40;;;;;;4973287;28;20510;-63
2022/03/28 12:54:08;;;;;;;18.40;5.47;;;24.00;66.30;;;;;;4971908;28;20046;-63
2022/03/28 12:56:51;;;;;;;19.63;5.93;;;24.40;66.90;;;;;;4972993;28;20023;-62
2022/03/28 12:59:35;;;;;;;18.30;5.33;;;25.20;65.80;;;;;;4973216;28;20052;-62